sensor_id;sensor_type;location;lat;lon;timestamp;pressure;altitude;pressure_sealevel;temperature;humidity
40089;BME280;25793;55.706;13.186;2022-09-03T00:00:07;101660.41;;;16.25;64.06
40089;BME280;25793;55.706;13.186;2022-09-03T00:03:15;101666.41;;;16.27;64.19
40089;BME280;25793;55.706;13.186;2022-09-03T00:06:11;101659.34;;;16.28;63.67
40089;BME280;25793;55.706;13.186;2022-09-03T00:11:51;101671.47;;;16.30;63.86
40089;BME280;25793;55.706;13.186;2022-09-03T00:14:36;101663.19;;;16.36;63.57
40089;BME280;25793;55.706;13.186;2022-09-03T00:17:10;101662.44;;;16.34;63.48
40089;BME280;25793;55.706;13.186;2022-09-03T00:19:45;101657.28;;;16.33;63.59
40089;BME280;25793;55.706;13.186;2022-09-03T00:22:18;101664.41;;;16.31;63.99
40089;BME280;25793;55.706;13.186;2022-09-03T00:24:47;101658.22;;;16.32;63.73
40089;BME280;25793;55.706;13.186;2022-09-03T00:27:19;101649.84;;;16.27;63.89
40089;BME280;25793;55.706;13.186;2022-09-03T00:30:10;101656.44;;;16.19;64.53
40089;BME280;25793;55.706;13.186;2022-09-03T00:32:44;101667.94;;;16.17;64.57
40089;BME280;25793;55.706;13.186;2022-09-03T00:35:28;101666.19;;;16.17;64.45
40089;BME280;25793;55.706;13.186;2022-09-03T00:37:59;101664.59;;;16.15;64.57
40089;BME280;25793;55.706;13.186;2022-09-03T00:46:44;101672.44;;;16.02;65.33
40089;BME280;25793;55.706;13.186;2022-09-03T00:52:20;101660.22;;;15.88;66.15
40089;BME280;25793;55.706;13.186;2022-09-03T00:58:32;101672.28;;;15.90;66.15
40089;BME280;25793;55.706;13.186;2022-09-03T01:01:09;101660.38;;;15.85;66.30
40089;BME280;25793;55.706;13.186;2022-09-03T01:04:00;101660.34;;;15.86;66.17
40089;BME280;25793;55.706;13.186;2022-09-03T01:12:18;101651.75;;;15.97;65.40
40089;BME280;25793;55.706;13.186;2022-09-03T01:34:14;101632.38;;;15.85;65.94
40089;BME280;25793;55.706;13.186;2022-09-03T01:37:39;101643.34;;;15.77;66.39
40089;BME280;25793;55.706;13.186;2022-09-03T01:40:08;101643.47;;;15.76;66.80
40089;BME280;25793;55.706;13.186;2022-09-03T01:48:35;101639.34;;;15.72;66.48
40089;BME280;25793;55.706;13.186;2022-09-03T01:51:23;101643.56;;;15.74;66.33
40089;BME280;25793;55.706;13.186;2022-09-03T02:00:10;101648.59;;;15.77;66.21
40089;BME280;25793;55.706;13.186;2022-09-03T02:02:41;101647.56;;;15.80;65.76
40089;BME280;25793;55.706;13.186;2022-09-03T02:05:11;101647.66;;;15.78;65.51
40089;BME280;25793;55.706;13.186;2022-09-03T02:07:48;101642.34;;;15.80;65.30
40089;BME280;25793;55.706;13.186;2022-09-03T02:10:21;101644.22;;;15.78;65.52
40089;BME280;25793;55.706;13.186;2022-09-03T02:13:06;101643.28;;;15.79;65.15
40089;BME280;25793;55.706;13.186;2022-09-03T02:15:35;101638.09;;;15.77;65.19
40089;BME280;25793;55.706;13.186;2022-09-03T02:18:06;101641.78;;;15.75;64.83
40089;BME280;25793;55.706;13.186;2022-09-03T02:20:37;101634.53;;;15.78;65.07
40089;BME280;25793;55.706;13.186;2022-09-03T02:23:04;101634.53;;;15.78;64.97
40089;BME280;25793;55.706;13.186;2022-09-03T02:25:36;101633.91;;;15.75;64.90
40089;BME280;25793;55.706;13.186;2022-09-03T02:28:05;101634.34;;;15.82;64.81
40089;BME280;25793;55.706;13.186;2022-09-03T02:30:42;101639.59;;;15.82;64.93
40089;BME280;25793;55.706;13.186;2022-09-03T02:33:09;101633.06;;;15.74;64.95
40089;BME280;25793;55.706;13.186;2022-09-03T02:35:36;101630.16;;;15.79;64.88
40089;BME280;25793;55.706;13.186;2022-09-03T02:38:11;101634.94;;;15.87;64.55
40089;BME280;25793;55.706;13.186;2022-09-03T02:40:38;101638.66;;;15.83;64.82
40089;BME280;25793;55.706;13.186;2022-09-03T02:43:08;101627.13;;;15.85;64.56
40089;BME280;25793;55.706;13.186;2022-09-03T02:45:36;101637.84;;;15.82;64.77
40089;BME280;25793;55.706;13.186;2022-09-03T02:48:08;101635.28;;;15.80;64.88
40089;BME280;25793;55.706;13.186;2022-09-03T02:50:42;101627.34;;;15.82;65.04
40089;BME280;25793;55.706;13.186;2022-09-03T02:53:09;101628.47;;;15.78;64.71
40089;BME280;25793;55.706;13.186;2022-09-03T02:55:35;101631.19;;;15.76;64.74
40089;BME280;25793;55.706;13.186;2022-09-03T02:58:02;101637.56;;;15.72;65.14
40089;BME280;25793;55.706;13.186;2022-09-03T03:00:31;101628.13;;;15.70;65.18
40089;BME280;25793;55.706;13.186;2022-09-03T03:02:58;101625.06;;;15.63;65.54
40089;BME280;25793;55.706;13.186;2022-09-03T03:05:30;101627.78;;;15.61;65.67
40089;BME280;25793;55.706;13.186;2022-09-03T03:08:01;101630.31;;;15.63;65.75
40089;BME280;25793;55.706;13.186;2022-09-03T03:10:27;101627.03;;;15.59;65.58
40089;BME280;25793;55.706;13.186;2022-09-03T03:12:54;101629.66;;;15.59;65.46
40089;BME280;25793;55.706;13.186;2022-09-03T03:15:21;101629.75;;;15.58;65.59
40089;BME280;25793;55.706;13.186;2022-09-03T03:17:47;101633.03;;;15.61;65.78
40089;BME280;25793;55.706;13.186;2022-09-03T03:20:14;101621.91;;;15.58;65.55
40089;BME280;25793;55.706;13.186;2022-09-03T03:22:41;101626.41;;;15.56;65.51
40089;BME280;25793;55.706;13.186;2022-09-03T03:25:08;101633.31;;;15.57;65.59
40089;BME280;25793;55.706;13.186;2022-09-03T03:27:35;101629.75;;;15.58;65.62
40089;BME280;25793;55.706;13.186;2022-09-03T03:30:09;101621.03;;;15.57;66.02
40089;BME280;25793;55.706;13.186;2022-09-03T03:32:36;101632.28;;;15.59;65.96
40089;BME280;25793;55.706;13.186;2022-09-03T03:35:04;101630.19;;;15.64;65.41
40089;BME280;25793;55.706;13.186;2022-09-03T03:37:33;101630.00;;;15.68;65.33
40089;BME280;25793;55.706;13.186;2022-09-03T03:40:01;101628.13;;;15.70;65.39
40089;BME280;25793;55.706;13.186;2022-09-03T03:42:28;101620.47;;;15.67;65.17
40089;BME280;25793;55.706;13.186;2022-09-03T03:44:54;101626.63;;;15.65;65.18
40089;BME280;25793;55.706;13.186;2022-09-03T03:47:21;101626.56;;;15.67;65.16
40089;BME280;25793;55.706;13.186;2022-09-03T03:49:48;101626.75;;;15.64;65.40
40089;BME280;25793;55.706;13.186;2022-09-03T03:52:14;101619.63;;;15.66;65.17
40089;BME280;25793;55.706;13.186;2022-09-03T03:54:41;101631.19;;;15.76;65.26
40089;BME280;25793;55.706;13.186;2022-09-03T03:57:08;101629.31;;;15.78;65.33
40089;BME280;25793;55.706;13.186;2022-09-03T03:59:34;101628.56;;;15.76;65.05
40089;BME280;25793;55.706;13.186;2022-09-03T04:02:01;101629.50;;;15.75;64.97
40089;BME280;25793;55.706;13.186;2022-09-03T04:04:28;101620.69;;;15.76;65.29
40089;BME280;25793;55.706;13.186;2022-09-03T04:06:54;101624.56;;;15.71;65.30
40089;BME280;25793;55.706;13.186;2022-09-03T04:09:21;101617.75;;;15.68;65.36
40089;BME280;25793;55.706;13.186;2022-09-03T04:11:48;101634.31;;;15.69;65.20
40089;BME280;25793;55.706;13.186;2022-09-03T04:14:16;101622.13;;;15.68;65.35
40089;BME280;25793;55.706;13.186;2022-09-03T04:16:45;101623.81;;;15.69;65.36
40089;BME280;25793;55.706;13.186;2022-09-03T04:19:12;101609.56;;;15.73;65.10
40089;BME280;25793;55.706;13.186;2022-09-03T04:21:39;101603.59;;;15.71;65.21
40089;BME280;25793;55.706;13.186;2022-09-03T04:24:05;101615.63;;;15.73;65.29
40089;BME280;25793;55.706;13.186;2022-09-03T04:26:33;101615.88;;;15.70;65.27
40089;BME280;25793;55.706;13.186;2022-09-03T04:29:03;101607.88;;;15.72;65.50
40089;BME280;25793;55.706;13.186;2022-09-03T04:31:34;101621.81;;;15.72;65.50
40089;BME280;25793;55.706;13.186;2022-09-03T04:34:00;101617.25;;;15.76;65.46
40089;BME280;25793;55.706;13.186;2022-09-03T04:36:29;101612.81;;;15.76;65.25
40089;BME280;25793;55.706;13.186;2022-09-03T04:38:58;101610.50;;;15.72;65.48
40089;BME280;25793;55.706;13.186;2022-09-03T04:41:27;101622.13;;;15.68;65.29
40089;BME280;25793;55.706;13.186;2022-09-03T04:43:55;101607.03;;;15.71;65.43
40089;BME280;25793;55.706;13.186;2022-09-03T04:46:24;101618.69;;;15.67;65.30
40089;BME280;25793;55.706;13.186;2022-09-03T04:48:53;101610.81;;;15.67;65.03
40089;BME280;25793;55.706;13.186;2022-09-03T04:51:27;101623.19;;;15.65;65.17
40089;BME280;25793;55.706;13.186;2022-09-03T04:53:59;101620.56;;;15.65;64.89
40089;BME280;25793;55.706;13.186;2022-09-03T04:56:28;101628.72;;;15.60;64.94
40089;BME280;25793;55.706;13.186;2022-09-03T04:59:00;101619.72;;;15.64;64.91
40089;BME280;25793;55.706;13.186;2022-09-03T05:01:29;101624.31;;;15.61;64.87
40089;BME280;25793;55.706;13.186;2022-09-03T05:03:56;101625.69;;;15.67;64.98
40089;BME280;25793;55.706;13.186;2022-09-03T05:06:28;101626.25;;;15.72;64.53
40089;BME280;25793;55.706;13.186;2022-09-03T05:08:56;101626.06;;;15.75;64.74
40089;BME280;25793;55.706;13.186;2022-09-03T05:11:24;101622.19;;;15.80;64.33
40089;BME280;25793;55.706;13.186;2022-09-03T05:13:52;101620.09;;;15.86;64.30
40089;BME280;25793;55.706;13.186;2022-09-03T05:16:21;101631.78;;;15.94;64.24
40089;BME280;25793;55.706;13.186;2022-09-03T05:18:51;101630.56;;;16.00;64.02
40089;BME280;25793;55.706;13.186;2022-09-03T05:21:20;101622.28;;;16.06;63.58
40089;BME280;25793;55.706;13.186;2022-09-03T05:23:48;101622.72;;;16.13;63.70
40089;BME280;25793;55.706;13.186;2022-09-03T05:26:24;101621.25;;;16.22;63.51
40089;BME280;25793;55.706;13.186;2022-09-03T05:28:56;101629.34;;;16.32;62.96
40089;BME280;25793;55.706;13.186;2022-09-03T05:31:25;101635.03;;;16.38;62.97
40089;BME280;25793;55.706;13.186;2022-09-03T05:33:55;101630.09;;;16.47;62.79
40089;BME280;25793;55.706;13.186;2022-09-03T05:36:26;101638.06;;;16.58;62.62
40089;BME280;25793;55.706;13.186;2022-09-03T05:38:53;101633.47;;;16.62;62.45
40089;BME280;25793;55.706;13.186;2022-09-03T05:41:21;101627.69;;;16.69;62.83
40089;BME280;25793;55.706;13.186;2022-09-03T05:43:49;101623.78;;;16.75;62.41
40089;BME280;25793;55.706;13.186;2022-09-03T05:46:22;101628.53;;;16.83;62.10
40089;BME280;25793;55.706;13.186;2022-09-03T05:48:55;101630.59;;;16.91;62.19
40089;BME280;25793;55.706;13.186;2022-09-03T05:51:22;101637.41;;;16.93;62.31
40089;BME280;25793;55.706;13.186;2022-09-03T05:53:48;101633.56;;;16.99;61.99
40089;BME280;25793;55.706;13.186;2022-09-03T05:56:17;101639.44;;;17.03;62.07
40089;BME280;25793;55.706;13.186;2022-09-03T05:58:49;101636.00;;;17.02;62.09
40089;BME280;25793;55.706;13.186;2022-09-03T06:01:27;101635.25;;;17.00;62.61
40089;BME280;25793;55.706;13.186;2022-09-03T06:04:04;101640.19;;;17.05;62.54
40089;BME280;25793;55.706;13.186;2022-09-03T06:06:33;101633.41;;;17.13;62.18
40089;BME280;25793;55.706;13.186;2022-09-03T06:09:03;101645.41;;;17.18;62.22
40089;BME280;25793;55.706;13.186;2022-09-03T06:11:32;101645.78;;;17.24;62.09
40089;BME280;25793;55.706;13.186;2022-09-03T06:14:02;101642.13;;;17.27;61.99
40089;BME280;25793;55.706;13.186;2022-09-03T06:16:38;101639.28;;;17.30;62.04
40089;BME280;25793;55.706;13.186;2022-09-03T06:19:06;101641.25;;;17.39;61.71
40089;BME280;25793;55.706;13.186;2022-09-03T06:21:37;101639.53;;;17.51;61.75
40089;BME280;25793;55.706;13.186;2022-09-03T06:24:13;101641.47;;;17.61;61.05
40089;BME280;25793;55.706;13.186;2022-09-03T06:26:40;101649.47;;;17.59;60.83
40089;BME280;25793;55.706;13.186;2022-09-03T06:29:08;101647.81;;;17.58;60.51
40089;BME280;25793;55.706;13.186;2022-09-03T06:31:35;101652.13;;;17.59;60.66
40089;BME280;25793;55.706;13.186;2022-09-03T06:34:02;101649.25;;;17.62;60.86
40089;BME280;25793;55.706;13.186;2022-09-03T06:36:30;101653.63;;;17.75;60.52
40089;BME280;25793;55.706;13.186;2022-09-03T06:38:57;101649.31;;;17.73;60.46
40089;BME280;25793;55.706;13.186;2022-09-03T06:41:26;101648.47;;;17.73;60.45
40089;BME280;25793;55.706;13.186;2022-09-03T06:43:58;101652.69;;;17.76;61.00
40089;BME280;25793;55.706;13.186;2022-09-03T06:46:35;101652.56;;;17.77;61.08
40089;BME280;25793;55.706;13.186;2022-09-03T06:49:04;101654.13;;;17.80;61.15
40089;BME280;25793;55.706;13.186;2022-09-03T06:51:31;101648.84;;;17.80;61.38
40089;BME280;25793;55.706;13.186;2022-09-03T06:54:01;101654.84;;;17.82;61.21
40089;BME280;25793;55.706;13.186;2022-09-03T06:56:28;101652.50;;;17.90;61.45
40089;BME280;25793;55.706;13.186;2022-09-03T06:59:03;101663.66;;;17.94;61.12
40089;BME280;25793;55.706;13.186;2022-09-03T07:01:32;101651.47;;;17.80;60.67
40089;BME280;25793;55.706;13.186;2022-09-03T07:04:01;101664.88;;;17.77;61.33
40089;BME280;25793;55.706;13.186;2022-09-03T07:06:31;101652.72;;;17.87;60.98
40089;BME280;25793;55.706;13.186;2022-09-03T07:08:58;101659.34;;;17.93;60.60
40089;BME280;25793;55.706;13.186;2022-09-03T07:11:27;101658.31;;;17.82;60.54
40089;BME280;25793;55.706;13.186;2022-09-03T07:13:56;101659.88;;;17.85;60.81
40089;BME280;25793;55.706;13.186;2022-09-03T07:16:28;101652.63;;;17.88;60.46
40089;BME280;25793;55.706;13.186;2022-09-03T07:18:55;101668.19;;;17.92;60.48
40089;BME280;25793;55.706;13.186;2022-09-03T07:21:24;101665.50;;;17.80;60.89
40089;BME280;25793;55.706;13.186;2022-09-03T07:23:53;101656.28;;;17.75;61.52
40089;BME280;25793;55.706;13.186;2022-09-03T07:26:28;101658.56;;;17.79;61.50
40089;BME280;25793;55.706;13.186;2022-09-03T07:28:56;101662.47;;;17.73;61.85
40089;BME280;25793;55.706;13.186;2022-09-03T07:31:26;101655.53;;;17.72;61.84
40089;BME280;25793;55.706;13.186;2022-09-03T07:34:01;101660.69;;;17.74;61.85
40089;BME280;25793;55.706;13.186;2022-09-03T07:36:40;101664.88;;;17.77;61.63
40089;BME280;25793;55.706;13.186;2022-09-03T07:39:09;101654.03;;;17.81;61.70
40089;BME280;25793;55.706;13.186;2022-09-03T07:41:37;101668.22;;;17.79;61.52
40089;BME280;25793;55.706;13.186;2022-09-03T07:44:04;101670.63;;;17.82;61.48
40089;BME280;25793;55.706;13.186;2022-09-03T07:46:33;101670.75;;;17.80;61.78
40089;BME280;25793;55.706;13.186;2022-09-03T07:49:00;101671.25;;;17.85;61.38
40089;BME280;25793;55.706;13.186;2022-09-03T07:51:30;101675.22;;;17.91;61.32
40089;BME280;25793;55.706;13.186;2022-09-03T07:53:59;101673.09;;;17.96;60.80
40089;BME280;25793;55.706;13.186;2022-09-03T07:56:28;101670.09;;;18.14;60.86
40089;BME280;25793;55.706;13.186;2022-09-03T07:58:57;101675.06;;;18.30;60.08
40089;BME280;25793;55.706;13.186;2022-09-03T08:01:26;101683.47;;;18.58;59.58
40089;BME280;25793;55.706;13.186;2022-09-03T08:03:54;101676.56;;;18.80;57.70
40089;BME280;25793;55.706;13.186;2022-09-03T08:06:24;101674.78;;;18.91;55.83
40089;BME280;25793;55.706;13.186;2022-09-03T08:08:55;101677.75;;;18.87;54.86
40089;BME280;25793;55.706;13.186;2022-09-03T08:11:31;101682.13;;;18.99;55.06
40089;BME280;25793;55.706;13.186;2022-09-03T08:14:00;101683.78;;;19.12;54.90
40089;BME280;25793;55.706;13.186;2022-09-03T08:16:29;101677.19;;;19.17;54.10
40089;BME280;25793;55.706;13.186;2022-09-03T08:18:57;101680.56;;;19.19;54.17
40089;BME280;25793;55.706;13.186;2022-09-03T08:21:27;101677.28;;;19.27;54.20
40089;BME280;25793;55.706;13.186;2022-09-03T08:23:55;101681.34;;;19.43;53.90
40089;BME280;25793;55.706;13.186;2022-09-03T08:26:30;101683.88;;;19.44;53.95
40089;BME280;25793;55.706;13.186;2022-09-03T08:28:57;101681.56;;;19.51;53.85
40089;BME280;25793;55.706;13.186;2022-09-03T08:31:24;101676.28;;;19.51;53.27
40089;BME280;25793;55.706;13.186;2022-09-03T08:33:54;101673.66;;;19.51;53.79
40089;BME280;25793;55.706;13.186;2022-09-03T08:36:26;101683.72;;;19.57;53.78
40089;BME280;25793;55.706;13.186;2022-09-03T08:38:57;101694.63;;;19.64;53.65
40089;BME280;25793;55.706;13.186;2022-09-03T08:50:03;101694.91;;;19.93;55.75
40089;BME280;25793;55.706;13.186;2022-09-03T08:52:47;101692.78;;;19.76;57.17
40089;BME280;25793;55.706;13.186;2022-09-03T08:55:36;101703.34;;;19.76;58.02
40089;BME280;25793;55.706;13.186;2022-09-03T09:01:11;101688.19;;;19.34;59.38
40089;BME280;25793;55.706;13.186;2022-09-03T09:03:47;101699.84;;;19.31;58.98
40089;BME280;25793;55.706;13.186;2022-09-03T09:06:34;101684.63;;;19.01;59.57
40089;BME280;25793;55.706;13.186;2022-09-03T09:09:34;101681.03;;;19.02;59.54
40089;BME280;25793;55.706;13.186;2022-09-03T09:18:15;101683.28;;;19.29;57.49
40089;BME280;25793;55.706;13.186;2022-09-03T09:23:34;101676.63;;;18.55;60.42
40089;BME280;25793;55.706;13.186;2022-09-03T09:26:09;101682.59;;;18.35;61.22
40089;BME280;25793;55.706;13.186;2022-09-03T09:28:38;101685.06;;;18.72;60.62
40089;BME280;25793;55.706;13.186;2022-09-03T09:31:06;101677.28;;;18.70;60.48
40089;BME280;25793;55.706;13.186;2022-09-03T09:33:36;101687.25;;;19.12;59.32
40089;BME280;25793;55.706;13.186;2022-09-03T09:36:05;101684.59;;;19.35;58.32
40089;BME280;25793;55.706;13.186;2022-09-03T09:38:35;101683.53;;;19.38;57.35
40089;BME280;25793;55.706;13.186;2022-09-03T09:41:19;101690.44;;;19.50;57.07
40089;BME280;25793;55.706;13.186;2022-09-03T09:44:01;101685.06;;;19.51;55.87
40089;BME280;25793;55.706;13.186;2022-09-03T09:46:38;101682.03;;;19.56;55.45
40089;BME280;25793;55.706;13.186;2022-09-03T09:49:36;101687.19;;;19.58;54.99
40089;BME280;25793;55.706;13.186;2022-09-03T09:52:09;101683.44;;;19.72;54.78
40089;BME280;25793;55.706;13.186;2022-09-03T09:54:38;101695.78;;;19.71;54.73
40089;BME280;25793;55.706;13.186;2022-09-03T09:57:12;101694.50;;;19.65;54.65
40089;BME280;25793;55.706;13.186;2022-09-03T09:59:39;101698.41;;;19.71;54.96
40089;BME280;25793;55.706;13.186;2022-09-03T10:04:48;101680.88;;;19.81;54.11
40089;BME280;25793;55.706;13.186;2022-09-03T10:07:27;101687.84;;;19.94;54.40
40089;BME280;25793;55.706;13.186;2022-09-03T10:12:31;101679.72;;;20.07;51.06
40089;BME280;25793;55.706;13.186;2022-09-03T10:15:17;101687.00;;;20.15;51.10
40089;BME280;25793;55.706;13.186;2022-09-03T10:18:00;101681.47;;;20.18;49.50
40089;BME280;25793;55.706;13.186;2022-09-03T10:23:14;101678.84;;;20.18;50.16
40089;BME280;25793;55.706;13.186;2022-09-03T10:28:28;101690.03;;;20.10;49.21
40089;BME280;25793;55.706;13.186;2022-09-03T10:34:24;101675.63;;;20.35;48.33
40089;BME280;25793;55.706;13.186;2022-09-03T11:01:42;101677.00;;;20.82;46.98
40089;BME280;25793;55.706;13.186;2022-09-03T11:04:24;101672.13;;;20.77;49.05
40089;BME280;25793;55.706;13.186;2022-09-03T11:07:01;101673.81;;;20.78;49.73
40089;BME280;25793;55.706;13.186;2022-09-03T11:09:41;101667.59;;;20.68;49.94
40089;BME280;25793;55.706;13.186;2022-09-03T11:12:16;101674.06;;;20.54;51.13
40089;BME280;25793;55.706;13.186;2022-09-03T11:15:14;101664.00;;;20.48;50.91
40089;BME280;25793;55.706;13.186;2022-09-03T11:17:51;101664.72;;;20.29;51.68
40089;BME280;25793;55.706;13.186;2022-09-03T11:20:24;101664.56;;;20.20;51.72
40089;BME280;25793;55.706;13.186;2022-09-03T11:23:00;101669.63;;;20.12;51.62
40089;BME280;25793;55.706;13.186;2022-09-03T11:25:40;101671.06;;;20.16;52.02
40089;BME280;25793;55.706;13.186;2022-09-03T11:31:16;101669.94;;;19.98;51.86
40089;BME280;25793;55.706;13.186;2022-09-03T11:34:13;101673.53;;;19.97;51.53
40089;BME280;25793;55.706;13.186;2022-09-03T11:36:49;101669.94;;;19.98;51.88
40089;BME280;25793;55.706;13.186;2022-09-03T11:39:33;101672.31;;;20.01;52.23
40089;BME280;25793;55.706;13.186;2022-09-03T11:42:09;101679.47;;;20.10;51.88
40089;BME280;25793;55.706;13.186;2022-09-03T11:44:39;101667.91;;;20.22;51.71
40089;BME280;25793;55.706;13.186;2022-09-03T11:47:44;101670.47;;;20.34;51.68
40089;BME280;25793;55.706;13.186;2022-09-03T11:53:05;101666.75;;;20.15;51.92
40089;BME280;25793;55.706;13.186;2022-09-03T11:58:24;101662.34;;;20.04;52.20
40089;BME280;25793;55.706;13.186;2022-09-03T12:00:52;101668.66;;;19.92;52.68
40089;BME280;25793;55.706;13.186;2022-09-03T12:03:29;101671.91;;;19.73;52.73
40089;BME280;25793;55.706;13.186;2022-09-03T12:19:51;101660.16;;;19.77;55.18
40089;BME280;25793;55.706;13.186;2022-09-03T12:22:21;101661.84;;;19.66;55.22
40089;BME280;25793;55.706;13.186;2022-09-03T12:24:48;101663.31;;;19.59;54.88
40089;BME280;25793;55.706;13.186;2022-09-03T12:27:21;101658.66;;;19.51;55.68
40089;BME280;25793;55.706;13.186;2022-09-03T12:29:57;101656.38;;;19.58;55.92
40089;BME280;25793;55.706;13.186;2022-09-03T12:32:31;101650.59;;;19.64;54.69
40089;BME280;25793;55.706;13.186;2022-09-03T12:35:23;101648.03;;;19.74;54.04
40089;BME280;25793;55.706;13.186;2022-09-03T12:38:12;101644.75;;;19.93;53.71
40089;BME280;25793;55.706;13.186;2022-09-03T12:40:44;101631.44;;;19.95;52.96
40089;BME280;25793;55.706;13.186;2022-09-03T12:43:30;101636.00;;;19.93;52.57
40089;BME280;25793;55.706;13.186;2022-09-03T12:46:13;101628.84;;;20.05;52.80
40089;BME280;25793;55.706;13.186;2022-09-03T12:49:04;101624.22;;;19.97;52.39
40089;BME280;25793;55.706;13.186;2022-09-03T12:52:01;101621.34;;;20.00;52.50
40089;BME280;25793;55.706;13.186;2022-09-03T12:54:36;101625.09;;;20.07;52.41
40089;BME280;25793;55.706;13.186;2022-09-03T12:57:07;101620.63;;;19.98;51.93
40089;BME280;25793;55.706;13.186;2022-09-03T12:59:37;101621.69;;;19.95;52.06
40089;BME280;25793;55.706;13.186;2022-09-03T13:02:13;101624.09;;;19.99;51.79
40089;BME280;25793;55.706;13.186;2022-09-03T13:04:41;101629.72;;;20.05;51.84
40089;BME280;25793;55.706;13.186;2022-09-03T13:07:20;101617.06;;;20.09;51.91
40089;BME280;25793;55.706;13.186;2022-09-03T13:09:49;101612.56;;;20.21;51.06
40089;BME280;25793;55.706;13.186;2022-09-03T13:12:27;101614.44;;;20.30;50.81
40089;BME280;25793;55.706;13.186;2022-09-03T13:14:55;101611.88;;;20.50;51.05
40089;BME280;25793;55.706;13.186;2022-09-03T13:25:28;101589.19;;;21.29;48.93
40089;BME280;25793;55.706;13.186;2022-09-03T13:31:30;101602.88;;;21.73;46.77
40089;BME280;25793;55.706;13.186;2022-09-03T13:34:04;101603.16;;;21.80;47.97
40089;BME280;25793;55.706;13.186;2022-09-03T13:37:06;101603.16;;;21.70;48.35
40089;BME280;25793;55.706;13.186;2022-09-03T13:39:51;101599.22;;;21.45;49.30
40089;BME280;25793;55.706;13.186;2022-09-03T13:42:26;101598.66;;;21.22;49.85
40089;BME280;25793;55.706;13.186;2022-09-03T13:45:22;101601.91;;;20.84;51.05
40089;BME280;25793;55.706;13.186;2022-09-03T13:47:57;101601.44;;;20.48;51.77
40089;BME280;25793;55.706;13.186;2022-09-03T13:51:05;101593.75;;;20.35;52.64
40089;BME280;25793;55.706;13.186;2022-09-03T13:56:12;101589.69;;;20.10;53.05
40089;BME280;25793;55.706;13.186;2022-09-03T13:58:46;101599.59;;;19.97;54.45
40089;BME280;25793;55.706;13.186;2022-09-03T14:04:13;101600.53;;;19.74;55.01
40089;BME280;25793;55.706;13.186;2022-09-03T14:06:59;101592.84;;;19.71;54.64
40089;BME280;25793;55.706;13.186;2022-09-03T14:10:05;101597.81;;;19.64;54.47
40089;BME280;25793;55.706;13.186;2022-09-03T14:15:27;101595.81;;;19.57;53.54
40089;BME280;25793;55.706;13.186;2022-09-03T14:18:12;101583.59;;;19.56;52.81
40089;BME280;25793;55.706;13.186;2022-09-03T14:24:03;101585.25;;;19.57;51.91
40089;BME280;25793;55.706;13.186;2022-09-03T14:26:34;101586.22;;;19.56;51.74
40089;BME280;25793;55.706;13.186;2022-09-03T14:32:02;101593.63;;;19.62;51.27
40089;BME280;25793;55.706;13.186;2022-09-03T14:49:05;101577.06;;;20.45;48.33
40089;BME280;25793;55.706;13.186;2022-09-03T14:57:06;101571.22;;;20.72;45.96
40089;BME280;25793;55.706;13.186;2022-09-03T15:07:42;101572.03;;;21.04;44.80
40089;BME280;25793;55.706;13.186;2022-09-03T15:13:24;101566.75;;;21.23;43.63
40089;BME280;25793;55.706;13.186;2022-09-03T15:24:08;101569.81;;;20.99;44.42
40089;BME280;25793;55.706;13.186;2022-09-03T15:26:50;101572.56;;;20.88;44.57
40089;BME280;25793;55.706;13.186;2022-09-03T15:29:43;101575.19;;;20.88;44.69
40089;BME280;25793;55.706;13.186;2022-09-03T15:32:19;101576.00;;;20.88;44.99
40089;BME280;25793;55.706;13.186;2022-09-03T15:37:38;101575.53;;;20.73;46.30
40089;BME280;25793;55.706;13.186;2022-09-03T15:40:38;101574.00;;;20.70;46.46
40089;BME280;25793;55.706;13.186;2022-09-03T15:43:26;101565.56;;;20.77;46.82
40089;BME280;25793;55.706;13.186;2022-09-03T15:46:13;101579.84;;;20.74;46.71
40089;BME280;25793;55.706;13.186;2022-09-03T15:48:59;101579.66;;;20.66;47.55
40089;BME280;25793;55.706;13.186;2022-09-03T15:51:42;101581.31;;;20.57;47.94
40089;BME280;25793;55.706;13.186;2022-09-03T15:54:19;101584.09;;;20.55;48.46
40089;BME280;25793;55.706;13.186;2022-09-03T15:56:59;101590.47;;;20.53;49.55
40089;BME280;25793;55.706;13.186;2022-09-03T15:59:37;101590.44;;;20.43;50.04
40089;BME280;25793;55.706;13.186;2022-09-03T16:05:07;101600.06;;;20.23;48.09
40089;BME280;25793;55.706;13.186;2022-09-03T16:08:06;101594.84;;;20.12;47.44
40089;BME280;25793;55.706;13.186;2022-09-03T16:11:00;101607.66;;;19.95;47.46
40089;BME280;25793;55.706;13.186;2022-09-03T16:16:53;101604.13;;;19.73;47.85
40089;BME280;25793;55.706;13.186;2022-09-03T16:19:29;101600.78;;;19.71;47.82
40089;BME280;25793;55.706;13.186;2022-09-03T16:22:03;101598.53;;;19.66;47.87
40089;BME280;25793;55.706;13.186;2022-09-03T16:27:21;101593.88;;;19.59;48.38
40089;BME280;25793;55.706;13.186;2022-09-03T16:32:56;101599.16;;;19.59;48.49
40089;BME280;25793;55.706;13.186;2022-09-03T16:38:12;101600.72;;;19.61;48.93
40089;BME280;25793;55.706;13.186;2022-09-03T16:40:57;101593.19;;;19.57;48.89
40089;BME280;25793;55.706;13.186;2022-09-03T16:43:45;101598.47;;;19.57;48.86
40089;BME280;25793;55.706;13.186;2022-09-03T16:49:43;101608.44;;;19.74;48.54
40089;BME280;25793;55.706;13.186;2022-09-03T17:28:01;101619.78;;;18.87;51.59
40089;BME280;25793;55.706;13.186;2022-09-03T17:31:03;101614.50;;;18.75;52.03